createdAt,value
2019-01-16T00:00:48.957Z,90.07
2019-01-16T00:03:38.403Z,90.18
2019-01-16T00:06:27.852Z,90.25
2019-01-16T00:09:17.176Z,90.38
2019-01-16T00:12:06.728Z,90.39
2019-01-16T00:14:54.622Z,90.40
2019-01-16T00:17:44.016Z,90.49
2019-01-16T00:20:33.443Z,90.53
2019-01-16T00:23:22.754Z,90.45
2019-01-16T00:26:12.079Z,90.42
2019-01-16T00:28:50.836Z,90.41
2019-01-16T00:31:33.146Z,90.54
2019-01-16T00:34:22.826Z,90.29
2019-01-16T00:37:12.249Z,90.33
2019-01-16T00:39:58.943Z,90.44
2019-01-16T00:42:48.196Z,90.59
2019-01-16T00:45:30.673Z,90.72
2019-01-16T00:48:24.496Z,90.41
2019-01-16T00:51:11.073Z,90.28
2019-01-16T00:53:51.698Z,90.37
2019-01-16T00:56:41.179Z,90.49
2019-01-16T00:59:30.702Z,90.62
2019-01-16T01:02:20.219Z,90.90
2019-01-16T01:05:07.772Z,90.82
2019-01-16T01:07:50.809Z,90.43
2019-01-16T01:10:28.859Z,90.42
2019-01-16T01:13:18.252Z,90.25
2019-01-16T01:16:07.597Z,90.23
2019-01-16T01:18:51.127Z,90.25
2019-01-16T01:21:40.600Z,90.20
2019-01-16T01:24:30.033Z,90.21
2019-01-16T01:27:15.880Z,90.06
2019-01-16T01:30:05.557Z,90.05
2019-01-16T01:32:55.006Z,89.77
2019-01-16T01:35:44.542Z,90.03
2019-01-16T01:38:32.026Z,90.32
2019-01-16T01:41:21.576Z,90.77
2019-01-16T01:43:58.179Z,90.80
2019-01-16T01:46:47.632Z,90.89
2019-01-16T01:49:36.968Z,90.91
2019-01-16T01:52:27.703Z,91.12
2019-01-16T01:55:08.033Z,91.09
2019-01-16T01:57:53.956Z,91.19
2019-01-16T02:00:43.365Z,91.12
2019-01-16T02:03:32.170Z,91.01
2019-01-16T02:06:22.207Z,90.95
2019-01-16T02:09:11.515Z,91.00
2019-01-16T02:12:01.482Z,91.09
2019-01-16T02:14:48.986Z,91.29
2019-01-16T02:17:38.400Z,91.18
2019-01-16T02:20:19.343Z,91.14
2019-01-16T02:23:08.753Z,91.14
2019-01-16T02:25:58.872Z,91.22
2019-01-16T02:28:43.058Z,91.34
2019-01-16T02:31:27.228Z,91.55
2019-01-16T02:34:14.602Z,91.69
2019-01-16T02:36:55.922Z,91.81
2019-01-16T02:39:45.238Z,92.02
2019-01-16T02:42:34.728Z,92.16
2019-01-16T02:45:25.444Z,92.20
2019-01-16T02:48:12.702Z,92.29
2019-01-16T02:51:02.239Z,92.34
2019-01-16T02:53:51.640Z,92.36
2019-01-16T02:56:36.648Z,92.36
2019-01-16T02:59:26.051Z,92.36
2019-01-16T03:02:15.796Z,92.38
2019-01-16T03:05:04.967Z,92.37
2019-01-16T03:07:54.265Z,92.32
2019-01-16T03:10:43.537Z,92.37
2019-01-16T03:13:27.623Z,92.44
2019-01-16T03:16:16.925Z,92.39
2019-01-16T03:19:06.241Z,92.37
2019-01-16T03:21:55.547Z,92.45
2019-01-16T03:24:44.847Z,92.52
2019-01-16T03:27:34.106Z,92.56
2019-01-16T03:30:24.911Z,92.52
2019-01-16T03:33:14.178Z,92.45
2019-01-16T03:36:03.738Z,92.39
2019-01-16T03:38:50.857Z,92.37
2019-01-16T03:41:28.412Z,92.31
2019-01-16T03:44:05.422Z,92.27
2019-01-16T03:46:54.833Z,92.25
2019-01-16T03:49:33.415Z,92.25
2019-01-16T03:52:22.954Z,92.16
2019-01-16T03:55:04.762Z,91.98
2019-01-16T03:57:54.126Z,91.83
2019-01-16T04:00:43.523Z,91.82
2019-01-16T04:03:32.923Z,91.82
2019-01-16T04:06:22.276Z,91.88
2019-01-16T04:09:11.647Z,91.96
2019-01-16T04:12:01.046Z,92.02
2019-01-16T04:14:50.423Z,91.98
2019-01-16T04:17:39.736Z,92.00
2019-01-16T04:20:15.832Z,91.81
2019-01-16T04:22:53.743Z,91.67
2019-01-16T04:25:43.001Z,91.57
2019-01-16T04:28:21.242Z,91.60
2019-01-16T04:31:10.537Z,91.71
2019-01-16T04:33:59.949Z,91.74
2019-01-16T04:36:49.113Z,91.76
2019-01-16T04:39:38.458Z,91.72
2019-01-16T04:42:20.704Z,91.76
2019-01-16T04:45:09.272Z,91.79
2019-01-16T04:47:53.298Z,91.81
2019-01-16T04:50:42.572Z,91.89
2019-01-16T04:53:32.037Z,92.12
2019-01-16T04:56:21.303Z,92.29
2019-01-16T04:59:10.606Z,92.43
2019-01-16T05:01:55.886Z,92.57
2019-01-16T05:04:45.173Z,92.73
2019-01-16T05:07:33.697Z,92.88
2019-01-16T05:10:23.858Z,92.92
2019-01-16T05:13:13.296Z,92.96
2019-01-16T05:16:03.116Z,92.99
2019-01-16T05:18:48.512Z,93.02
2019-01-16T05:21:37.843Z,93.05
2019-01-16T05:24:27.252Z,93.06
2019-01-16T05:27:16.613Z,93.06
2019-01-16T05:29:59.237Z,93.08
2019-01-16T05:32:48.837Z,93.06
2019-01-16T05:35:38.878Z,93.04
2019-01-16T05:38:24.102Z,93.05
2019-01-16T05:41:13.402Z,93.02
2019-01-16T05:44:02.653Z,93.05
2019-01-16T05:46:48.665Z,93.03
2019-01-16T05:49:38.058Z,93.00
2019-01-16T05:52:27.586Z,93.04
2019-01-16T05:55:16.967Z,93.00
2019-01-16T05:58:06.361Z,93.00
2019-01-16T06:00:55.831Z,92.97
2019-01-16T06:03:45.207Z,92.93
2019-01-16T06:06:34.997Z,92.83
2019-01-16T06:09:21.424Z,92.76
2019-01-16T06:12:10.687Z,92.74
2019-01-16T06:15:00.243Z,92.65
2019-01-16T06:17:49.848Z,92.64
2019-01-16T06:20:39.733Z,92.55
2019-01-16T06:23:24.049Z,92.45
2019-01-16T06:26:13.508Z,92.33
2019-01-16T06:28:54.593Z,92.23
2019-01-16T06:31:37.338Z,92.02
2019-01-16T06:34:26.870Z,91.94
2019-01-16T06:37:16.303Z,91.84
2019-01-16T06:40:05.657Z,91.74
2019-01-16T06:42:55.448Z,91.72
2019-01-16T06:45:44.928Z,91.74
2019-01-16T06:48:26.997Z,91.51
2019-01-16T06:51:16.324Z,91.29
2019-01-16T06:54:02.854Z,91.27
2019-01-16T06:56:52.094Z,91.38
2019-01-16T06:59:41.474Z,91.42
2019-01-16T07:02:30.801Z,91.29
2019-01-16T07:05:20.298Z,91.15
2019-01-16T07:08:09.812Z,91.02
2019-01-16T07:10:52.758Z,91.02
2019-01-16T07:13:42.164Z,91.02
2019-01-16T07:16:27.841Z,91.01
2019-01-16T07:19:17.282Z,91.00
2019-01-16T07:22:06.573Z,90.99
2019-01-16T07:24:52.308Z,90.88
2019-01-16T07:27:41.777Z,90.88
2019-01-16T07:30:32.146Z,90.71
2019-01-16T07:33:21.392Z,90.26
2019-01-16T07:36:11.645Z,90.38
2019-01-16T07:39:01.111Z,90.38
2019-01-16T07:41:50.458Z,90.54
2019-01-16T07:44:39.773Z,90.45
2019-01-16T07:47:29.188Z,90.51
2019-01-16T07:50:17.165Z,90.57
2019-01-16T07:53:02.485Z,90.44
2019-01-16T07:55:51.908Z,90.25
2019-01-16T07:58:41.592Z,90.40
2019-01-16T08:01:28.334Z,90.16
2019-01-16T08:04:17.696Z,90.05
2019-01-16T08:07:07.205Z,89.75
2019-01-16T08:09:53.898Z,89.78
2019-01-16T08:12:43.130Z,89.82
2019-01-16T08:15:32.778Z,89.78
2019-01-16T08:18:17.438Z,89.75
2019-01-16T08:21:07.011Z,89.73
2019-01-16T08:23:56.652Z,89.76
2019-01-16T08:26:46.243Z,89.59
2019-01-16T08:29:27.747Z,89.13
2019-01-16T08:32:13.105Z,88.79
2019-01-16T08:35:02.829Z,88.43
2019-01-16T08:37:52.847Z,88.35
2019-01-16T08:40:42.217Z,88.41
2019-01-16T08:43:22.827Z,88.09
2019-01-16T08:46:11.197Z,88.04
2019-01-16T08:48:57.408Z,87.87
2019-01-16T08:51:46.821Z,87.74
2019-01-16T08:54:36.113Z,87.45
2019-01-16T08:57:25.916Z,87.68
2019-01-16T09:00:15.268Z,87.49
2019-01-16T09:03:00.626Z,87.21
2019-01-16T09:05:49.697Z,86.93
2019-01-16T09:08:39.132Z,86.60
2019-01-16T09:11:28.456Z,86.57
2019-01-16T09:14:17.884Z,86.43
2019-01-16T09:17:07.551Z,86.30
2019-01-16T09:19:47.654Z,86.12
2019-01-16T09:22:38.092Z,85.57
2019-01-16T09:25:17.883Z,85.40
2019-01-16T09:28:05.174Z,85.51
2019-01-16T09:30:54.507Z,85.68
2019-01-16T09:33:43.916Z,85.61
2019-01-16T09:36:27.986Z,85.24
2019-01-16T09:39:17.357Z,85.61
2019-01-16T09:42:00.987Z,85.56
2019-01-16T09:44:50.212Z,85.76
2019-01-16T09:47:29.756Z,85.44
2019-01-16T09:50:08.217Z,84.27
2019-01-16T09:52:57.499Z,84.37
2019-01-16T09:55:46.848Z,84.18
2019-01-16T09:58:36.302Z,83.62
2019-01-16T10:01:19.888Z,83.23
2019-01-16T10:04:09.197Z,82.40
2019-01-16T10:06:48.406Z,81.97
2019-01-16T10:09:37.726Z,82.39
2019-01-16T10:12:27.298Z,81.01
2019-01-16T10:15:16.758Z,82.54
2019-01-16T10:18:06.047Z,82.15
2019-01-16T10:20:56.075Z,82.34
2019-01-16T10:23:37.383Z,82.94
2019-01-16T10:26:26.917Z,82.29
2019-01-16T10:29:16.496Z,82.16
2019-01-16T10:31:57.151Z,81.89
2019-01-16T10:34:42.528Z,81.92
2019-01-16T10:37:30.305Z,81.42
2019-01-16T10:40:19.678Z,81.75
2019-01-16T10:43:08.979Z,81.60
2019-01-16T10:45:58.408Z,81.56
2019-01-16T10:48:49.842Z,81.32
2019-01-16T10:51:37.338Z,81.55
2019-01-16T10:54:17.139Z,81.56
2019-01-16T10:57:06.555Z,81.61
2019-01-16T10:59:50.775Z,80.98
2019-01-16T11:02:32.693Z,81.67
2019-01-16T11:05:16.309Z,81.26
2019-01-16T11:07:54.148Z,81.19
2019-01-16T11:10:43.616Z,81.50
2019-01-16T11:13:32.850Z,81.12
2019-01-16T11:16:22.329Z,80.78
2019-01-16T11:19:08.832Z,80.60
2019-01-16T11:21:58.222Z,81.08
2019-01-16T11:24:46.256Z,80.87
2019-01-16T11:27:25.498Z,81.15
2019-01-16T11:30:14.952Z,81.23
2019-01-16T11:33:04.274Z,81.22
2019-01-16T11:35:53.582Z,81.31
2019-01-16T11:38:43.716Z,81.27
2019-01-16T11:41:30.942Z,81.27
2019-01-16T11:44:20.390Z,81.58
2019-01-16T11:47:08.657Z,81.96
2019-01-16T11:49:58.015Z,81.78
2019-01-16T11:52:41.981Z,81.92
2019-01-16T11:55:31.476Z,82.01
2019-01-16T11:58:20.803Z,82.03
2019-01-16T12:01:02.166Z,81.71
2019-01-16T12:03:51.556Z,81.84
2019-01-16T12:06:28.984Z,81.72
2019-01-16T12:09:18.833Z,81.90
2019-01-16T12:12:08.054Z,81.59
2019-01-16T12:14:54.174Z,81.62
2019-01-16T12:17:33.752Z,81.07
2019-01-16T12:20:23.330Z,81.04
2019-01-16T12:23:12.648Z,80.94
2019-01-16T12:25:52.729Z,80.97
2019-01-16T12:28:40.080Z,80.78
2019-01-16T12:31:29.478Z,80.61
2019-01-16T12:34:11.672Z,80.43
2019-01-16T12:37:01.080Z,80.05
2019-01-16T12:39:50.303Z,79.88
2019-01-16T12:42:39.632Z,79.63
2019-01-16T12:45:29.352Z,79.50
2019-01-16T12:48:10.658Z,79.68
2019-01-16T12:50:55.028Z,79.76
2019-01-16T12:53:36.201Z,79.61
2019-01-16T12:56:25.662Z,80.07
2019-01-16T12:59:15.100Z,80.03
2019-01-16T13:02:04.483Z,79.42
2019-01-16T13:04:50.097Z,79.47
2019-01-16T13:07:39.493Z,79.69
2019-01-16T13:10:24.877Z,79.61
2019-01-16T13:13:14.237Z,79.76
2019-01-16T13:16:03.832Z,79.58
2019-01-16T13:18:54.117Z,79.71
2019-01-16T13:21:43.582Z,79.66
2019-01-16T13:24:32.852Z,79.31
2019-01-16T13:27:22.358Z,79.75
2019-01-16T13:30:11.643Z,80.15
2019-01-16T13:33:00.979Z,79.80
2019-01-16T13:35:50.333Z,80.04
2019-01-16T13:38:29.664Z,79.87
2019-01-16T13:41:13.712Z,79.80
2019-01-16T13:43:59.689Z,80.08
2019-01-16T13:46:49.078Z,79.66
2019-01-16T13:49:38.425Z,80.05
2019-01-16T13:52:27.893Z,80.42
2019-01-16T13:55:17.179Z,80.19
2019-01-16T13:58:06.622Z,80.43
2019-01-16T14:00:53.713Z,80.26
2019-01-16T14:03:31.407Z,80.81
2019-01-16T14:06:20.687Z,80.78
2019-01-16T14:09:10.478Z,81.16
2019-01-16T14:11:59.870Z,81.12
2019-01-16T14:14:49.357Z,81.05
2019-01-16T14:17:38.663Z,81.77
2019-01-16T14:20:32.815Z,82.28
2019-01-16T14:23:22.156Z,82.57
2019-01-16T14:26:04.111Z,82.45
2019-01-16T14:28:53.447Z,82.14
2019-01-16T14:31:42.736Z,81.70
2019-01-16T14:34:32.056Z,81.86
2019-01-16T14:37:21.427Z,81.93
2019-01-16T14:40:10.667Z,81.53
2019-01-16T14:43:00.110Z,81.73
2019-01-16T14:45:49.496Z,82.08
2019-01-16T14:48:30.727Z,82.20
2019-01-16T14:51:20.201Z,82.32
2019-01-16T14:54:09.578Z,82.56
2019-01-16T14:56:54.053Z,82.61
2019-01-16T14:59:43.358Z,81.88
2019-01-16T15:02:31.134Z,82.12
2019-01-16T15:05:22.197Z,82.25
2019-01-16T15:08:11.585Z,81.71
2019-01-16T15:11:00.902Z,81.90
2019-01-16T15:14:00.195Z,82.00
2019-01-16T15:16:49.903Z,81.91
2019-01-16T15:19:39.315Z,82.25
2019-01-16T15:22:20.925Z,81.87
2019-01-16T15:25:06.157Z,81.54
2019-01-16T15:27:55.512Z,81.36
2019-01-16T15:30:45.459Z,81.49
2019-01-16T15:33:34.870Z,81.04
2019-01-16T15:36:24.657Z,81.15
2019-01-16T15:39:14.023Z,81.24
2019-01-16T15:41:54.598Z,81.30
2019-01-16T15:44:44.102Z,81.25
2019-01-16T15:47:33.604Z,81.16
2019-01-16T15:50:19.853Z,81.08
2019-01-16T15:53:09.368Z,80.99
2019-01-16T15:55:59.813Z,80.96
2019-01-16T15:58:49.203Z,81.05
2019-01-16T16:01:34.317Z,81.06
2019-01-16T16:04:13.016Z,81.31
2019-01-16T16:07:02.582Z,81.08
2019-01-16T16:09:52.033Z,81.00
2019-01-16T16:12:42.667Z,80.72
2019-01-16T16:15:37.733Z,80.86
2019-01-16T16:18:30.578Z,80.63
2019-01-16T16:21:23.732Z,80.89
2019-01-16T16:24:13.546Z,80.80
2019-01-16T16:27:03.097Z,80.75
2019-01-16T16:29:56.643Z,80.66
2019-01-16T16:32:39.853Z,80.68
2019-01-16T16:35:29.528Z,81.27
2019-01-16T16:38:19.078Z,81.47
2019-01-16T16:41:02.367Z,81.60
2019-01-16T16:43:49.947Z,81.75
2019-01-16T16:46:46.926Z,81.67
2019-01-16T16:49:36.443Z,81.91
2019-01-16T16:52:26.212Z,81.47
2019-01-16T16:55:15.762Z,81.89
2019-01-16T16:57:57.742Z,81.50
2019-01-16T17:00:47.205Z,81.36
2019-01-16T17:03:40.222Z,81.18
2019-01-16T17:06:31.116Z,81.41
2019-01-16T17:09:20.529Z,81.12
2019-01-16T17:12:23.097Z,80.71
2019-01-16T17:15:12.479Z,80.37
2019-01-16T17:18:04.677Z,80.46
2019-01-16T17:20:45.314Z,80.57
2019-01-16T17:23:37.882Z,80.53
2019-01-16T17:26:27.366Z,80.18
2019-01-16T17:29:19.574Z,80.02
2019-01-16T17:32:12.533Z,80.01
2019-01-16T17:35:01.958Z,80.29
2019-01-16T17:37:49.986Z,80.44
2019-01-16T17:40:44.023Z,80.65
2019-01-16T17:43:31.182Z,80.70
2019-01-16T17:46:25.533Z,80.64
2019-01-16T17:49:18.454Z,80.76
2019-01-16T17:52:07.913Z,80.95
2019-01-16T17:54:58.292Z,80.99
2019-01-16T17:57:51.469Z,80.94
2019-01-16T18:00:43.157Z,81.09
2019-01-16T18:03:36.997Z,80.92
2019-01-16T18:06:25.668Z,80.89
2019-01-16T18:09:15.769Z,81.12
2019-01-16T18:12:06.463Z,81.01
2019-01-16T18:14:54.393Z,81.02
2019-01-16T18:17:44.966Z,81.15
2019-01-16T18:20:38.944Z,81.25
2019-01-16T18:23:32.542Z,81.32
2019-01-16T18:26:22.057Z,81.62
2019-01-16T18:29:15.528Z,81.82
2019-01-16T18:32:06.087Z,81.44
2019-01-16T18:34:55.597Z,81.47
2019-01-16T18:37:41.156Z,81.74
2019-01-16T18:40:39.249Z,81.71
2019-01-16T18:43:23.727Z,81.13
2019-01-16T18:46:15.537Z,81.32
2019-01-16T18:49:07.762Z,80.98
2019-01-16T18:51:57.818Z,81.07
2019-01-16T18:54:50.708Z,81.14
2019-01-16T18:57:31.893Z,81.11
2019-01-16T19:00:22.531Z,80.85
2019-01-16T19:03:18.719Z,80.71
2019-01-16T19:06:11.663Z,80.39
2019-01-16T19:09:01.204Z,80.47
2019-01-16T19:11:54.304Z,80.19
2019-01-16T19:14:43.908Z,79.85
2019-01-16T19:17:34.803Z,79.65
2019-01-16T19:20:21.433Z,79.86
2019-01-16T19:23:11.278Z,79.86
2019-01-16T19:26:03.091Z,79.71
2019-01-16T19:28:56.062Z,80.03
2019-01-16T19:31:51.651Z,80.08
2019-01-16T19:34:36.018Z,79.97
2019-01-16T19:37:17.792Z,80.26
2019-01-16T19:40:08.366Z,80.38
2019-01-16T19:43:00.044Z,80.58
2019-01-16T19:45:52.002Z,80.65
2019-01-16T19:48:49.039Z,80.91
2019-01-16T19:51:47.583Z,81.10
2019-01-16T19:54:33.027Z,81.10
2019-01-16T19:57:28.683Z,81.51
2019-01-16T20:00:13.979Z,81.88
2019-01-16T20:03:01.297Z,82.22
2019-01-16T20:05:54.669Z,82.47
2019-01-16T20:08:45.093Z,82.72
2019-01-16T20:11:35.992Z,83.06
2019-01-16T20:14:31.884Z,83.24
2019-01-16T20:17:19.667Z,83.41
2019-01-16T20:20:06.392Z,83.84
2019-01-16T20:22:59.016Z,83.96
2019-01-16T20:25:52.397Z,84.09
2019-01-16T20:28:43.478Z,84.15
2019-01-16T20:31:33.037Z,83.68
2019-01-16T20:34:22.667Z,83.25
2019-01-16T20:37:08.722Z,82.93
2019-01-16T20:40:00.228Z,83.13
2019-01-16T20:42:51.346Z,83.12
2019-01-16T20:45:51.020Z,82.10
2019-01-16T20:48:36.037Z,82.02
2019-01-16T20:51:30.829Z,82.42
2019-01-16T20:54:22.178Z,82.44
2019-01-16T20:57:11.984Z,82.94
2019-01-16T21:00:07.758Z,83.03
2019-01-16T21:03:02.726Z,83.36
2019-01-16T21:06:08.357Z,83.42
2019-01-16T21:08:42.240Z,83.78
2019-01-16T21:11:36.742Z,84.08
2019-01-16T21:14:30.793Z,84.24
2019-01-16T21:17:23.135Z,84.30
2019-01-16T21:20:13.268Z,84.03
2019-01-16T21:23:02.783Z,83.76
2019-01-16T21:26:04.544Z,83.24
2019-01-16T21:28:55.049Z,82.04
2019-01-16T21:31:45.466Z,81.62
2019-01-16T21:34:43.647Z,80.93
2019-01-16T21:37:22.748Z,80.36
2019-01-16T21:40:12.277Z,80.01
2019-01-16T21:43:05.183Z,79.46
2019-01-16T21:45:54.654Z,79.16
2019-01-16T21:48:42.792Z,79.70
2019-01-16T21:51:32.227Z,79.73
2019-01-16T21:54:21.678Z,79.53
2019-01-16T21:57:11.387Z,79.50
2019-01-16T22:00:00.887Z,79.55
2019-01-16T22:02:50.786Z,79.36
2019-01-16T22:05:37.533Z,79.40
2019-01-16T22:08:27.418Z,79.57
2019-01-16T22:11:08.115Z,79.25
2019-01-16T22:13:53.311Z,79.50
2019-01-16T22:16:42.957Z,79.51
2019-01-16T22:19:32.915Z,79.49
2019-01-16T22:22:13.132Z,79.11
2019-01-16T22:25:02.568Z,79.28
2019-01-16T22:27:51.957Z,79.42
2019-01-16T22:30:41.432Z,78.89
2019-01-16T22:33:30.769Z,78.95
2019-01-16T22:36:25.377Z,79.29
2019-01-16T22:39:08.827Z,79.51
2019-01-16T22:42:00.118Z,79.97
2019-01-16T22:44:52.040Z,80.34
2019-01-16T22:47:41.554Z,80.85
2019-01-16T22:50:22.447Z,81.20
2019-01-16T22:53:11.788Z,81.53
2019-01-16T22:56:00.267Z,81.87
2019-01-16T22:58:37.069Z,81.72
2019-01-16T23:01:17.087Z,82.05
2019-01-16T23:04:06.566Z,82.15
2019-01-16T23:06:56.120Z,82.32
2019-01-16T23:09:35.766Z,82.46
2019-01-16T23:12:25.326Z,82.87
2019-01-16T23:15:14.709Z,83.11
2019-01-16T23:18:04.063Z,83.42
2019-01-16T23:20:53.426Z,83.68
2019-01-16T23:23:42.807Z,83.98
2019-01-16T23:26:32.117Z,83.98
2019-01-16T23:29:13.374Z,83.87
2019-01-16T23:31:57.906Z,83.31
2019-01-16T23:34:46.102Z,82.92
2019-01-16T23:37:35.526Z,82.40
2019-01-16T23:40:17.807Z,81.86
2019-01-16T23:43:07.166Z,81.97
2019-01-16T23:45:56.642Z,81.92
2019-01-16T23:48:36.312Z,81.79
2019-01-16T23:51:25.848Z,81.52
2019-01-16T23:54:15.644Z,81.73
2019-01-16T23:56:56.477Z,81.87
2019-01-16T23:59:45.810Z,81.65
